createdAt,value
2016-09-18T00:00:22.982Z,16.63
2016-09-18T00:01:22.961Z,16.65
2016-09-18T00:02:23.005Z,16.65
2016-09-18T00:03:22.993Z,16.54
2016-09-18T00:04:22.957Z,16.54
2016-09-18T00:05:22.915Z,16.59
2016-09-18T00:06:23.012Z,16.52
2016-09-18T00:07:22.933Z,16.54
2016-09-18T00:08:22.979Z,16.55
2016-09-18T00:09:22.944Z,16.59
2016-09-18T00:10:23.003Z,16.49
2016-09-18T00:11:22.888Z,16.44
2016-09-18T00:12:22.952Z,16.48
2016-09-18T00:13:22.957Z,16.47
2016-09-18T00:14:23.031Z,16.36
2016-09-18T00:15:23.020Z,16.39
2016-09-18T00:16:22.949Z,16.39
2016-09-18T00:17:22.914Z,16.29
2016-09-18T00:18:23.051Z,16.3
2016-09-18T00:19:22.962Z,16.3
2016-09-18T00:20:22.875Z,16.33
2016-09-18T00:21:23.011Z,16.36
2016-09-18T00:22:23.008Z,16.33
2016-09-18T00:23:23.038Z,16.33
2016-09-18T00:24:22.970Z,16.42
2016-09-18T00:25:22.934Z,16.59
2016-09-18T00:26:22.942Z,16.32
2016-09-18T00:27:22.924Z,16.34
2016-09-18T00:28:22.888Z,16.34
2016-09-18T00:29:22.997Z,16.36
2016-09-18T00:30:22.999Z,16.27
2016-09-18T00:31:23.078Z,16.29
2016-09-18T00:32:23.083Z,16.27
2016-09-18T00:33:23.047Z,16.22
2016-09-18T00:34:23.081Z,16.18
2016-09-18T00:35:23.096Z,16.17
2016-09-18T00:36:23.063Z,16.16
2016-09-18T00:37:23.027Z,16.21
2016-09-18T00:38:23.060Z,16.1
2016-09-18T00:39:23.048Z,16.06
2016-09-18T00:40:23.067Z,16.02
2016-09-18T00:41:23.016Z,16.07
2016-09-18T00:42:22.990Z,16.07
2016-09-18T00:43:23.109Z,15.96
2016-09-18T00:44:23.036Z,15.98
2016-09-18T00:45:23.102Z,15.98
2016-09-18T00:46:23.133Z,15.92
2016-09-18T00:47:23.030Z,15.92
2016-09-18T00:48:23.051Z,15.88
2016-09-18T00:49:23.067Z,15.89
2016-09-18T00:50:23.116Z,15.86
2016-09-18T00:51:23.131Z,15.84
2016-09-18T00:52:23.042Z,15.92
2016-09-18T00:53:23.318Z,15.91
2016-09-18T00:54:23.014Z,15.84
2016-09-18T00:55:23.029Z,15.83
2016-09-18T00:56:23.036Z,15.78
2016-09-18T00:57:23.079Z,15.73
2016-09-18T00:58:23.096Z,15.89
2016-09-18T00:59:23.059Z,15.84
2016-09-18T01:00:23.157Z,15.68
2016-09-18T01:01:23.071Z,15.73
2016-09-18T01:02:23.090Z,15.67
2016-09-18T01:03:23.002Z,15.68
2016-09-18T01:04:22.999Z,15.67
2016-09-18T01:05:23.127Z,15.71
2016-09-18T01:06:23.089Z,15.65
2016-09-18T01:07:23.191Z,15.67
2016-09-18T01:08:23.056Z,15.65
2016-09-18T01:09:23.034Z,15.63
2016-09-18T01:10:23.092Z,15.56
2016-09-18T01:11:23.110Z,15.53
2016-09-18T01:12:23.119Z,15.55
2016-09-18T01:13:23.086Z,15.6
2016-09-18T01:14:23.073Z,15.53
2016-09-18T01:15:23.110Z,15.59
2016-09-18T01:16:23.108Z,15.67
2016-09-18T01:17:23.117Z,15.56
2016-09-18T01:18:23.157Z,15.59
2016-09-18T01:19:23.160Z,15.6
2016-09-18T01:20:23.099Z,15.65
2016-09-18T01:21:23.210Z,15.63
2016-09-18T01:22:23.100Z,15.68
2016-09-18T01:23:23.214Z,15.74
2016-09-18T01:24:23.220Z,15.78
2016-09-18T01:25:23.153Z,15.73
2016-09-18T01:26:23.181Z,15.78
2016-09-18T01:27:23.163Z,15.71
2016-09-18T01:28:23.168Z,15.77
2016-09-18T01:29:23.072Z,15.68
2016-09-18T01:30:23.202Z,15.8
2016-09-18T01:31:23.168Z,15.81
2016-09-18T01:32:23.129Z,15.81
2016-09-18T01:33:23.123Z,15.77
2016-09-18T01:34:23.184Z,15.84
2016-09-18T01:35:23.111Z,15.77
2016-09-18T01:36:23.219Z,15.83
2016-09-18T01:37:23.211Z,15.8
2016-09-18T01:38:23.219Z,15.73
2016-09-18T01:39:23.154Z,15.77
2016-09-18T01:40:23.190Z,15.86
2016-09-18T01:41:23.118Z,15.92
2016-09-18T01:42:23.201Z,15.89
2016-09-18T01:43:23.234Z,15.92
2016-09-18T01:44:23.204Z,15.95
2016-09-18T01:45:23.205Z,16
2016-09-18T01:46:23.893Z,15.95
2016-09-18T01:47:23.296Z,16.04
2016-09-18T01:48:23.250Z,16.1
2016-09-18T01:49:23.303Z,16.14
2016-09-18T01:50:23.267Z,16.3
2016-09-18T01:51:23.215Z,16.16
2016-09-18T01:52:23.262Z,16.27
2016-09-18T01:53:23.338Z,16.22
2016-09-18T01:54:23.193Z,16.11
2016-09-18T01:55:23.244Z,16.13
2016-09-18T01:56:23.215Z,16.08
2016-09-18T01:57:23.184Z,16.13
2016-09-18T01:58:23.230Z,16.14
2016-09-18T01:59:23.312Z,16.22
2016-09-18T02:00:23.298Z,16.27
2016-09-18T02:01:23.284Z,16.27
2016-09-18T02:02:23.232Z,16.21
2016-09-18T02:03:23.254Z,16.22
2016-09-18T02:04:23.192Z,16.11
2016-09-18T02:05:23.353Z,16.13
2016-09-18T02:06:23.269Z,16.22
2016-09-18T02:07:23.307Z,16.26
2016-09-18T02:08:23.260Z,16.26
2016-09-18T02:09:23.367Z,16.29
2016-09-18T02:10:23.232Z,16.37
2016-09-18T02:11:23.327Z,16.33
2016-09-18T02:12:23.317Z,16.29
2016-09-18T02:13:23.261Z,16.37
2016-09-18T02:14:23.267Z,16.34
2016-09-18T02:15:23.374Z,16.37
2016-09-18T02:16:23.335Z,16.42
2016-09-18T02:17:23.287Z,16.36
2016-09-18T02:18:23.382Z,16.4
2016-09-18T02:19:23.261Z,16.32
2016-09-18T02:20:23.336Z,16.39
2016-09-18T02:21:23.291Z,16.33
2016-09-18T02:22:23.400Z,16.33
2016-09-18T02:23:23.316Z,16.32
2016-09-18T02:24:23.289Z,16.34
2016-09-18T02:25:23.390Z,16.21
2016-09-18T02:26:23.401Z,16.36
2016-09-18T02:27:23.400Z,16.36
2016-09-18T02:28:23.246Z,16.37
2016-09-18T02:29:23.332Z,16.47
2016-09-18T02:30:23.367Z,16.36
2016-09-18T02:31:23.405Z,16.37
2016-09-18T02:32:23.378Z,16.39
2016-09-18T02:33:23.430Z,16.42
2016-09-18T02:34:23.375Z,16.34
2016-09-18T02:35:23.344Z,16.45
2016-09-18T02:36:23.446Z,16.42
2016-09-18T02:37:23.353Z,16.36
2016-09-18T02:38:23.366Z,16.39
2016-09-18T02:39:23.374Z,16.33
2016-09-18T02:40:23.406Z,16.32
2016-09-18T02:41:23.470Z,16.29
2016-09-18T02:42:23.357Z,16.34
2016-09-18T02:43:23.365Z,16.36
2016-09-18T02:44:23.481Z,16.36
2016-09-18T02:45:23.281Z,16.36
2016-09-18T02:46:23.475Z,16.39
2016-09-18T02:47:23.384Z,16.34
2016-09-18T02:48:23.343Z,16.36
2016-09-18T02:49:23.391Z,16.39
2016-09-18T02:50:23.402Z,16.42
2016-09-18T02:51:23.385Z,16.4
2016-09-18T02:52:23.403Z,16.4
2016-09-18T02:53:23.350Z,16.39
2016-09-18T02:54:23.417Z,16.44
2016-09-18T02:55:23.406Z,16.42
2016-09-18T02:56:23.452Z,16.44
2016-09-18T02:57:23.400Z,16.4
2016-09-18T02:58:23.442Z,16.44
2016-09-18T02:59:23.475Z,16.44
2016-09-18T03:00:23.460Z,16.42
2016-09-18T03:01:23.405Z,16.44
2016-09-18T03:02:23.523Z,16.44
2016-09-18T03:03:23.500Z,16.39
2016-09-18T03:04:23.490Z,16.42
2016-09-18T03:05:23.438Z,16.54
2016-09-18T03:06:23.506Z,16.44
2016-09-18T03:07:23.536Z,16.47
2016-09-18T03:08:23.465Z,16.45
2016-09-18T03:09:23.470Z,16.47
2016-09-18T03:10:23.487Z,16.47
2016-09-18T03:11:23.535Z,16.48
2016-09-18T03:12:23.449Z,16.42
2016-09-18T03:13:23.471Z,16.44
2016-09-18T03:14:23.544Z,16.47
2016-09-18T03:15:23.408Z,16.4
2016-09-18T03:16:23.482Z,16.4
2016-09-18T03:17:23.501Z,16.29
2016-09-18T03:18:23.557Z,16.44
2016-09-18T03:19:23.533Z,16.47
2016-09-18T03:20:23.486Z,16.45
2016-09-18T03:21:23.525Z,16.39
2016-09-18T03:22:23.560Z,16.45
2016-09-18T03:23:23.400Z,16.4
2016-09-18T03:24:23.481Z,16.34
2016-09-18T03:25:23.496Z,16.39
2016-09-18T03:26:23.412Z,16.36
2016-09-18T03:27:23.534Z,16.33
2016-09-18T03:28:23.429Z,16.3
2016-09-18T03:29:23.481Z,16.34
2016-09-18T03:30:23.447Z,16.39
2016-09-18T03:31:23.560Z,16.37
2016-09-18T03:32:23.573Z,16.34
2016-09-18T03:33:23.484Z,16.32
2016-09-18T03:34:23.614Z,16.4
2016-09-18T03:35:23.483Z,16.34
2016-09-18T03:36:23.600Z,16.32
2016-09-18T03:37:23.485Z,16.37
2016-09-18T03:38:23.518Z,16.34
2016-09-18T03:39:23.560Z,16.27
2016-09-18T03:40:23.515Z,16.29
2016-09-18T03:41:23.509Z,16.42
2016-09-18T03:42:23.540Z,16.45
2016-09-18T03:43:23.571Z,16.36
2016-09-18T03:44:23.499Z,16.47
2016-09-18T03:45:23.518Z,16.44
2016-09-18T03:46:23.555Z,16.36
2016-09-18T03:47:23.595Z,16.36
2016-09-18T03:48:23.603Z,16.42
2016-09-18T03:49:23.655Z,16.33
2016-09-18T03:50:23.659Z,16.37
2016-09-18T03:51:23.595Z,16.42
2016-09-18T03:52:23.519Z,16.42
2016-09-18T03:53:23.656Z,16.36
2016-09-18T03:54:23.656Z,16.42
2016-09-18T03:55:23.617Z,16.4
2016-09-18T03:56:23.601Z,16.44
2016-09-18T03:57:23.580Z,16.47
2016-09-18T03:58:23.652Z,16.4
2016-09-18T03:59:23.657Z,16.39
2016-09-18T04:00:23.587Z,16.47
2016-09-18T04:01:23.615Z,16.37
2016-09-18T04:02:23.627Z,16.36
2016-09-18T04:03:23.594Z,16.36
2016-09-18T04:04:23.567Z,16.42
2016-09-18T04:05:23.668Z,16.33
2016-09-18T04:06:23.606Z,16.3
2016-09-18T04:07:23.630Z,16.36
2016-09-18T04:08:23.620Z,16.36
2016-09-18T04:09:23.645Z,16.34
2016-09-18T04:10:23.620Z,16.3
2016-09-18T04:11:23.659Z,16.37
2016-09-18T04:12:23.630Z,16.3
2016-09-18T04:13:23.659Z,16.34
2016-09-18T04:14:23.614Z,16.37
2016-09-18T04:15:23.699Z,16.34
2016-09-18T04:16:23.713Z,16.42
2016-09-18T04:17:23.604Z,16.34
2016-09-18T04:18:23.667Z,16.34
2016-09-18T04:19:23.642Z,16.29
2016-09-18T04:20:23.671Z,16.3
2016-09-18T04:21:23.687Z,16.3
2016-09-18T04:22:23.743Z,16.33
2016-09-18T04:23:23.719Z,16.36
2016-09-18T04:24:23.703Z,16.33
2016-09-18T04:25:23.697Z,16.36
2016-09-18T04:26:23.686Z,16.33
2016-09-18T04:27:23.668Z,16.34
2016-09-18T04:28:23.705Z,16.36
2016-09-18T04:29:23.752Z,16.33
2016-09-18T04:30:23.679Z,16.3
2016-09-18T04:31:23.601Z,16.4
2016-09-18T04:32:23.683Z,16.33
2016-09-18T04:33:23.777Z,16.3
2016-09-18T04:34:23.766Z,16.42
2016-09-18T04:35:23.727Z,16.37
2016-09-18T04:36:23.762Z,16.34
2016-09-18T04:37:23.652Z,16.36
2016-09-18T04:38:23.689Z,16.36
2016-09-18T04:39:23.659Z,16.33
2016-09-18T04:40:23.778Z,16.34
2016-09-18T04:41:23.792Z,16.37
2016-09-18T04:42:23.619Z,16.34
2016-09-18T04:43:23.800Z,16.33
2016-09-18T04:44:23.752Z,16.44
2016-09-18T04:45:23.801Z,16.34
2016-09-18T04:46:23.798Z,16.29
2016-09-18T04:47:23.832Z,16.33
2016-09-18T04:48:23.714Z,16.32
2016-09-18T04:49:23.800Z,16.4
2016-09-18T04:50:23.694Z,16.33
2016-09-18T04:51:23.734Z,16.37
2016-09-18T04:52:23.774Z,16.37
2016-09-18T04:53:23.820Z,16.37
2016-09-18T04:54:23.854Z,16.3
2016-09-18T04:55:23.755Z,16.29
2016-09-18T04:56:23.751Z,16.29
2016-09-18T04:57:23.838Z,16.25
2016-09-18T04:58:23.830Z,16.27
2016-09-18T04:59:23.781Z,16.22
2016-09-18T05:00:23.709Z,16.26
2016-09-18T05:01:23.771Z,16.26
2016-09-18T05:02:23.728Z,16.25
2016-09-18T05:03:23.719Z,16.42
2016-09-18T05:04:23.769Z,16.25
2016-09-18T05:05:23.777Z,16.27
2016-09-18T05:06:23.776Z,16.16
2016-09-18T05:07:23.851Z,16.22
2016-09-18T05:08:23.696Z,16.22
2016-09-18T05:09:23.836Z,16.27
2016-09-18T05:10:23.813Z,16.14
2016-09-18T05:11:23.825Z,16.27
2016-09-18T05:12:23.836Z,16.14
2016-09-18T05:13:23.759Z,16.26
2016-09-18T05:14:23.846Z,16.22
2016-09-18T05:15:23.824Z,16.17
2016-09-18T05:16:23.797Z,16.11
2016-09-18T05:17:23.891Z,16.08
2016-09-18T05:18:23.781Z,16.17
2016-09-18T05:19:23.779Z,16.22
2016-09-18T05:20:23.855Z,16.3
2016-09-18T05:21:23.735Z,16.27
2016-09-18T05:22:23.893Z,16.21
2016-09-18T05:23:23.907Z,16.21
2016-09-18T05:24:23.828Z,16.27
2016-09-18T05:25:23.796Z,16.25
2016-09-18T05:26:23.918Z,16.11
2016-09-18T05:27:23.822Z,16.22
2016-09-18T05:28:23.843Z,16.21
2016-09-18T05:29:23.900Z,16.22
2016-09-18T05:30:23.953Z,16.22
2016-09-18T05:31:23.881Z,16.27
2016-09-18T05:32:23.848Z,16.11
2016-09-18T05:33:23.854Z,16.16
2016-09-18T05:34:23.765Z,16.08
2016-09-18T05:35:23.805Z,16.18
2016-09-18T05:36:23.964Z,16.13
2016-09-18T05:37:23.809Z,16.1
2016-09-18T05:38:23.822Z,16.07
2016-09-18T05:39:23.877Z,16.11
2016-09-18T05:40:23.906Z,16.13
2016-09-18T05:41:23.908Z,16.21
2016-09-18T05:42:23.874Z,16.17
2016-09-18T05:43:23.912Z,16.18
2016-09-18T05:44:23.841Z,16.11
2016-09-18T05:45:23.930Z,16.14
2016-09-18T05:46:23.961Z,16.11
2016-09-18T05:47:23.861Z,16.1
2016-09-18T05:48:23.928Z,16.07
2016-09-18T05:49:23.899Z,16.18
2016-09-18T05:50:23.895Z,16.16
2016-09-18T05:51:23.943Z,16.11
2016-09-18T05:52:23.913Z,16.11
2016-09-18T05:53:24.000Z,16.16
2016-09-18T05:54:23.836Z,16.16
2016-09-18T05:55:23.992Z,16.07
2016-09-18T05:56:23.948Z,16.14
2016-09-18T05:57:23.910Z,16
2016-09-18T05:58:23.951Z,16.04
2016-09-18T05:59:23.929Z,16.02
2016-09-18T06:00:23.985Z,16
2016-09-18T06:01:23.969Z,16
2016-09-18T06:02:24.032Z,15.96
2016-09-18T06:03:24.030Z,15.95
2016-09-18T06:04:24.006Z,16.06
2016-09-18T06:05:23.947Z,16.04
2016-09-18T06:06:24.037Z,16.08
2016-09-18T06:07:24.019Z,16.02
2016-09-18T06:08:23.954Z,15.98
2016-09-18T06:09:23.872Z,15.93
2016-09-18T06:10:24.012Z,15.92
2016-09-18T06:11:24.043Z,15.96
2016-09-18T06:12:23.956Z,15.86
2016-09-18T06:13:23.908Z,15.95
2016-09-18T06:14:23.970Z,15.92
2016-09-18T06:15:24.048Z,15.89
2016-09-18T06:16:24.065Z,15.92
2016-09-18T06:17:23.930Z,15.95
2016-09-18T06:18:23.951Z,15.95
2016-09-18T06:19:24.071Z,15.89
2016-09-18T06:20:24.075Z,15.88
2016-09-18T06:21:24.021Z,15.91
2016-09-18T06:22:23.983Z,15.91
2016-09-18T06:23:23.980Z,15.92
2016-09-18T06:24:23.999Z,15.91
2016-09-18T06:25:23.975Z,15.88
2016-09-18T06:26:24.012Z,15.8
2016-09-18T06:27:24.039Z,15.91
2016-09-18T06:28:24.044Z,15.83
2016-09-18T06:29:24.079Z,15.86
2016-09-18T06:30:24.097Z,15.8
2016-09-18T06:31:24.006Z,15.8
2016-09-18T06:32:23.966Z,15.78
2016-09-18T06:33:23.985Z,15.84
2016-09-18T06:34:24.071Z,15.89
2016-09-18T06:35:24.016Z,15.89
2016-09-18T06:36:24.026Z,15.93
2016-09-18T06:37:24.077Z,15.88
2016-09-18T06:38:24.088Z,15.77
2016-09-18T06:39:24.042Z,15.8
2016-09-18T06:40:24.070Z,15.77
2016-09-18T06:41:24.116Z,15.73
2016-09-18T06:42:24.034Z,15.83
2016-09-18T06:43:24.086Z,15.78
2016-09-18T06:44:24.119Z,15.77
2016-09-18T06:45:24.006Z,15.8
2016-09-18T06:46:24.040Z,15.71
2016-09-18T06:47:24.077Z,15.83
2016-09-18T06:48:24.127Z,15.83
2016-09-18T06:49:24.152Z,15.83
2016-09-18T06:50:24.146Z,15.83
2016-09-18T06:51:24.154Z,15.78
2016-09-18T06:52:24.174Z,15.81
2016-09-18T06:53:24.045Z,15.83
2016-09-18T06:54:24.079Z,15.83
2016-09-18T06:55:24.203Z,15.81
2016-09-18T06:56:24.123Z,15.78
2016-09-18T06:57:24.091Z,15.91
2016-09-18T06:58:24.157Z,15.88
2016-09-18T06:59:24.182Z,15.91
2016-09-18T07:00:24.032Z,15.91
2016-09-18T07:01:24.066Z,15.8
2016-09-18T07:02:24.083Z,15.86
2016-09-18T07:03:24.026Z,15.84
2016-09-18T07:04:24.049Z,15.83
2016-09-18T07:05:24.116Z,15.77
2016-09-18T07:06:24.045Z,15.74
2016-09-18T07:07:24.104Z,15.73
2016-09-18T07:08:24.154Z,15.81
2016-09-18T07:09:24.128Z,15.78
2016-09-18T07:10:24.201Z,15.8
2016-09-18T07:11:24.083Z,15.71
2016-09-18T07:12:24.208Z,15.81
2016-09-18T07:13:24.129Z,15.75
2016-09-18T07:14:24.131Z,15.78
2016-09-18T07:15:24.218Z,15.83
2016-09-18T07:16:24.213Z,15.78
2016-09-18T07:17:24.155Z,15.86
2016-09-18T07:18:24.227Z,15.89
2016-09-18T07:19:24.328Z,15.84
2016-09-18T07:20:24.119Z,15.91
2016-09-18T07:21:24.177Z,15.88
2016-09-18T07:22:24.114Z,15.91
2016-09-18T07:23:24.208Z,15.89
2016-09-18T07:24:24.175Z,15.92
2016-09-18T07:25:24.172Z,15.92
2016-09-18T07:26:24.238Z,15.95
2016-09-18T07:27:24.171Z,16
2016-09-18T07:28:24.140Z,15.96
2016-09-18T07:29:24.143Z,15.92
2016-09-18T07:30:24.167Z,15.93
2016-09-18T07:31:24.275Z,15.92
2016-09-18T07:32:24.291Z,16.06
2016-09-18T07:33:24.284Z,16.06
2016-09-18T07:34:24.214Z,16.04
2016-09-18T07:35:24.196Z,15.95
2016-09-18T07:36:24.265Z,15.95
2016-09-18T07:37:24.241Z,16.02
2016-09-18T07:38:24.254Z,16.08
2016-09-18T07:39:24.281Z,16.11
2016-09-18T07:40:24.218Z,16.17
2016-09-18T07:41:24.218Z,16.13
2016-09-18T07:42:24.200Z,16.13
2016-09-18T07:43:24.225Z,16.06
2016-09-18T07:44:24.283Z,15.98
2016-09-18T07:45:24.218Z,15.92
2016-09-18T07:46:24.320Z,16.02
2016-09-18T07:47:24.254Z,15.95
2016-09-18T07:48:24.287Z,15.92
2016-09-18T07:49:24.270Z,15.89
2016-09-18T07:50:24.297Z,15.89
2016-09-18T07:51:24.282Z,15.89
2016-09-18T07:52:24.324Z,15.96
2016-09-18T07:53:24.315Z,15.95
2016-09-18T07:54:24.316Z,15.92
2016-09-18T07:55:24.471Z,15.95
2016-09-18T07:56:24.329Z,16.02
2016-09-18T07:57:24.338Z,15.93
2016-09-18T07:58:24.337Z,16.06
2016-09-18T07:59:24.200Z,16.06
2016-09-18T08:00:24.254Z,16.1
2016-09-18T08:01:24.249Z,16.08
2016-09-18T08:02:24.289Z,16.07
2016-09-18T08:03:24.267Z,16
2016-09-18T08:04:24.283Z,15.99
2016-09-18T08:05:24.198Z,15.95
2016-09-18T08:06:24.287Z,15.96
2016-09-18T08:07:24.295Z,16.06
2016-09-18T08:08:24.343Z,15.95
2016-09-18T08:09:24.243Z,15.99
2016-09-18T08:10:24.227Z,16.02
2016-09-18T08:11:24.304Z,16.04
2016-09-18T08:12:24.301Z,16.02
2016-09-18T08:13:24.305Z,15.98
2016-09-18T08:14:24.298Z,16.02
2016-09-18T08:15:24.234Z,16.17
2016-09-18T08:16:24.274Z,16.14
2016-09-18T08:17:24.356Z,16.11
2016-09-18T08:18:24.312Z,16.14
2016-09-18T08:19:24.368Z,16.11
2016-09-18T08:20:24.382Z,16.21
2016-09-18T08:21:24.342Z,16.26
2016-09-18T08:22:24.284Z,16.21
2016-09-18T08:23:24.334Z,16.29
2016-09-18T08:24:24.381Z,16.37
2016-09-18T08:25:24.432Z,16.52
2016-09-18T08:26:24.442Z,16.47
2016-09-18T08:27:24.423Z,16.44
2016-09-18T08:28:24.276Z,16.55
2016-09-18T08:29:24.348Z,16.51
2016-09-18T08:30:24.432Z,16.55
2016-09-18T08:31:24.353Z,16.4
2016-09-18T08:32:24.443Z,16.42
2016-09-18T08:33:24.350Z,16.42
2016-09-18T08:34:24.412Z,16.45
2016-09-18T08:35:24.419Z,16.52
2016-09-18T08:36:24.383Z,16.55
2016-09-18T08:37:24.444Z,16.74
2016-09-18T08:38:24.426Z,16.69
2016-09-18T08:39:24.427Z,16.8
2016-09-18T08:40:24.457Z,16.94
2016-09-18T08:41:24.463Z,17.05
2016-09-18T08:42:24.358Z,17.07
2016-09-18T08:43:24.388Z,17.2
2016-09-18T08:44:24.473Z,17.3
2016-09-18T08:45:24.443Z,17.38
2016-09-18T08:46:24.392Z,17.43
2016-09-18T08:47:24.484Z,17.66
2016-09-18T08:48:24.369Z,17.76
2016-09-18T08:49:24.515Z,17.76
2016-09-18T08:50:24.381Z,17.77
2016-09-18T08:51:24.373Z,17.84
2016-09-18T08:52:24.500Z,18.05
2016-09-18T08:53:24.431Z,18.17
2016-09-18T08:54:24.498Z,18.24
2016-09-18T08:55:24.395Z,18.45
2016-09-18T08:56:24.510Z,18.54
2016-09-18T08:57:24.441Z,18.57
2016-09-18T08:58:24.445Z,18.54
2016-09-18T08:59:24.480Z,18.56
2016-09-18T09:00:24.486Z,18.51
2016-09-18T09:01:24.397Z,18.36
2016-09-18T09:02:24.369Z,18.24
2016-09-18T09:03:24.450Z,17.95
2016-09-18T09:04:24.498Z,17.92
2016-09-18T09:05:24.503Z,18.01
2016-09-18T09:06:24.480Z,18.08
2016-09-18T09:07:24.457Z,18.01
2016-09-18T09:08:24.550Z,18.02
2016-09-18T09:09:24.491Z,17.96
2016-09-18T09:10:25.066Z,17.9
2016-09-18T09:11:24.476Z,17.96
2016-09-18T09:12:24.522Z,17.98
2016-09-18T09:13:24.564Z,17.77
2016-09-18T09:14:24.475Z,17.57
2016-09-18T09:15:24.576Z,17.66
2016-09-18T09:16:24.535Z,17.95
2016-09-18T09:17:24.413Z,18.05
2016-09-18T09:18:24.549Z,18.14
2016-09-18T09:19:24.527Z,18.1
2016-09-18T09:20:24.582Z,18.26
2016-09-18T09:21:24.588Z,18.26
2016-09-18T09:22:24.583Z,18.53
2016-09-18T09:23:24.476Z,18.86
2016-09-18T09:24:24.474Z,19.06
2016-09-18T09:25:24.531Z,19.16
2016-09-18T09:26:24.565Z,19.4
2016-09-18T09:27:24.618Z,19.45
2016-09-18T09:28:24.492Z,19.7
2016-09-18T09:29:24.489Z,19.79
2016-09-18T09:30:24.542Z,19.7
2016-09-18T09:31:24.569Z,19.86
2016-09-18T09:32:24.566Z,20.11
2016-09-18T09:33:24.603Z,20.12
2016-09-18T09:34:24.549Z,20.1
2016-09-18T09:35:24.631Z,20.27
2016-09-18T09:36:24.503Z,20.44
2016-09-18T09:37:24.633Z,20.25
2016-09-18T09:38:24.571Z,20.42
2016-09-18T09:39:24.564Z,20.37
2016-09-18T09:40:24.591Z,20.57
2016-09-18T09:41:24.532Z,20.46
2016-09-18T09:42:24.595Z,20.56
2016-09-18T09:43:24.591Z,20.19
2016-09-18T09:44:24.587Z,20.15
2016-09-18T09:45:24.667Z,19.85
2016-09-18T09:46:24.589Z,20.26
2016-09-18T09:47:24.606Z,20.58
2016-09-18T09:48:24.548Z,20.79
2016-09-18T09:49:24.626Z,20.96
2016-09-18T09:50:24.636Z,21.3
2016-09-18T09:51:24.683Z,21.64
2016-09-18T09:52:24.605Z,22.2
2016-09-18T09:53:24.558Z,22.42
2016-09-18T09:54:24.607Z,22.52
2016-09-18T09:55:24.615Z,22.67
2016-09-18T09:56:25.031Z,22.67
2016-09-18T09:57:24.653Z,22.49
2016-09-18T09:58:24.617Z,22.79
2016-09-18T09:59:24.584Z,23.07
2016-09-18T10:00:24.656Z,23.1
2016-09-18T10:01:24.691Z,23.41
2016-09-18T10:02:24.671Z,23.74
2016-09-18T10:03:24.591Z,24.03
2016-09-18T10:04:24.677Z,23.4
2016-09-18T10:05:24.643Z,22.84
2016-09-18T10:06:24.719Z,22.48
2016-09-18T10:07:24.686Z,21.89
2016-09-18T10:08:24.672Z,21.56
2016-09-18T10:09:24.600Z,21.43
2016-09-18T10:10:24.643Z,21.55
2016-09-18T10:11:24.736Z,21.51
2016-09-18T10:12:24.660Z,21.36
2016-09-18T10:13:24.674Z,20.9
2016-09-18T10:14:24.705Z,20.78
2016-09-18T10:15:24.712Z,20.93
2016-09-18T10:16:24.665Z,20.79
2016-09-18T10:17:24.603Z,21.13
2016-09-18T10:18:24.750Z,21.46
2016-09-18T10:19:24.658Z,22.02
2016-09-18T10:20:24.711Z,22.45
2016-09-18T10:21:24.768Z,22.2
2016-09-18T10:22:24.759Z,22.24
2016-09-18T10:23:24.654Z,22.79
2016-09-18T10:24:24.726Z,23.09
2016-09-18T10:25:24.652Z,23.14
2016-09-18T10:26:24.737Z,22.92
2016-09-18T10:27:24.701Z,23.19
2016-09-18T10:28:24.704Z,23.16
2016-09-18T10:29:24.679Z,22.89
2016-09-18T10:30:24.672Z,22.85
2016-09-18T10:31:24.752Z,22.82
2016-09-18T10:32:24.666Z,22.33
2016-09-18T10:33:24.776Z,22.15
2016-09-18T10:34:24.752Z,22.16
2016-09-18T10:35:24.724Z,22.29
2016-09-18T10:36:24.773Z,22.38
2016-09-18T10:37:24.732Z,22.33
2016-09-18T10:38:24.827Z,22.61
2016-09-18T10:39:24.836Z,22.85
2016-09-18T10:40:24.761Z,23.18
2016-09-18T10:41:24.734Z,23.64
2016-09-18T10:42:24.781Z,24.08
2016-09-18T10:43:24.741Z,24.26
2016-09-18T10:44:24.855Z,25
2016-09-18T10:45:24.709Z,25.08
2016-09-18T10:46:24.846Z,24.94
2016-09-18T10:47:24.838Z,24.17
2016-09-18T10:48:24.764Z,23.94
2016-09-18T10:49:24.850Z,23.41
2016-09-18T10:50:24.763Z,23.29
2016-09-18T10:51:24.745Z,22.91
2016-09-18T10:52:24.882Z,22.04
2016-09-18T10:53:24.756Z,21.82
2016-09-18T10:54:24.768Z,21.89
2016-09-18T10:55:24.891Z,21.49
2016-09-18T10:56:24.981Z,21.46
2016-09-18T10:57:24.794Z,21.62
2016-09-18T10:58:24.897Z,21.85
2016-09-18T10:59:24.819Z,22.31
2016-09-18T11:00:24.856Z,22.82
2016-09-18T11:01:24.924Z,23.52
2016-09-18T11:02:24.816Z,23.99
2016-09-18T11:03:24.824Z,24.51
2016-09-18T11:04:24.748Z,24.97
2016-09-18T11:05:24.719Z,25.44
2016-09-18T11:06:24.884Z,26.11
2016-09-18T11:07:24.772Z,26.2
2016-09-18T11:08:24.904Z,26.17
2016-09-18T11:09:24.908Z,26.23
2016-09-18T11:10:24.825Z,26.49
2016-09-18T11:11:24.862Z,26.47
2016-09-18T11:12:24.829Z,26.74
2016-09-18T11:13:24.845Z,27.3
2016-09-18T11:14:24.944Z,27.64
2016-09-18T11:15:25.837Z,27.65
2016-09-18T11:16:24.862Z,27.42
2016-09-18T11:17:24.937Z,26.34
2016-09-18T11:18:24.880Z,25.91
2016-09-18T11:19:25.069Z,24.93
2016-09-18T11:20:24.993Z,24.97
2016-09-18T11:21:24.938Z,25.76
2016-09-18T11:22:24.945Z,26.35
2016-09-18T11:23:24.860Z,26.45
2016-09-18T11:24:24.824Z,24.89
2016-09-18T11:25:24.836Z,24.11
2016-09-18T11:26:24.951Z,23.99
2016-09-18T11:27:24.882Z,23.94
2016-09-18T11:28:24.885Z,24.08
2016-09-18T11:29:24.937Z,23.78
2016-09-18T11:30:24.805Z,24.02
2016-09-18T11:31:25.683Z,24.44
2016-09-18T11:32:24.887Z,24.44
2016-09-18T11:33:24.864Z,25.05
2016-09-18T11:34:24.891Z,25.42
2016-09-18T11:35:24.882Z,25.49
2016-09-18T11:36:24.939Z,25.51
2016-09-18T11:37:24.979Z,25.59
2016-09-18T11:38:24.863Z,25.39
2016-09-18T11:39:24.918Z,24.96
2016-09-18T11:40:24.874Z,24.51
2016-09-18T11:41:24.958Z,24.34
2016-09-18T11:42:25.001Z,24.12
2016-09-18T11:43:24.956Z,24.03
2016-09-18T11:44:24.999Z,23.96
2016-09-18T11:45:24.922Z,24
2016-09-18T11:46:24.896Z,24.18
2016-09-18T11:47:24.958Z,24.34
2016-09-18T11:48:24.974Z,24.3
2016-09-18T11:49:24.966Z,23.82
2016-09-18T11:50:24.905Z,23.85
2016-09-18T11:51:24.982Z,23.9
2016-09-18T11:52:24.901Z,24.14
2016-09-18T11:53:24.955Z,24.37
2016-09-18T11:54:24.955Z,23.75
2016-09-18T11:55:25.023Z,23.78
2016-09-18T11:56:25.034Z,23.94
2016-09-18T11:57:24.951Z,24.19
2016-09-18T11:58:24.960Z,23.55
2016-09-18T11:59:24.996Z,22.64
2016-09-18T12:00:25.049Z,22.2
2016-09-18T12:01:24.981Z,22.18
2016-09-18T12:02:24.970Z,22.16
2016-09-18T12:03:25.007Z,21.97
2016-09-18T12:04:24.949Z,22.07
2016-09-18T12:05:25.003Z,22.3
2016-09-18T12:06:24.994Z,22.64
2016-09-18T12:07:25.026Z,22.88
2016-09-18T12:08:24.997Z,23.03
2016-09-18T12:09:25.044Z,23.35
2016-09-18T12:10:25.123Z,23.67
2016-09-18T12:11:25.004Z,24.15
2016-09-18T12:12:25.107Z,24.64
2016-09-18T12:13:24.977Z,25.24
2016-09-18T12:14:25.062Z,25.48
2016-09-18T12:15:24.972Z,25.93
2016-09-18T12:16:25.046Z,25.91
2016-09-18T12:17:25.023Z,26.27
2016-09-18T12:18:25.022Z,26.45
2016-09-18T12:19:25.083Z,26.53
2016-09-18T12:20:25.074Z,26.34
2016-09-18T12:21:25.040Z,26.32
2016-09-18T12:22:25.034Z,26.63
2016-09-18T12:23:25.198Z,26.67
2016-09-18T12:24:25.012Z,26.94
2016-09-18T12:25:25.094Z,26.47
2016-09-18T12:26:25.074Z,25.7
2016-09-18T12:27:25.151Z,25.37
2016-09-18T12:28:25.057Z,25.19
2016-09-18T12:29:25.084Z,24.85
2016-09-18T12:30:25.118Z,24.78
2016-09-18T12:31:25.060Z,24.83
2016-09-18T12:32:25.125Z,25.07
2016-09-18T12:33:25.164Z,24.93
2016-09-18T12:34:25.096Z,24.55
2016-09-18T12:35:25.855Z,24.4
2016-09-18T12:36:25.112Z,24.42
2016-09-18T12:37:25.034Z,24.37
2016-09-18T12:38:25.022Z,24.34
2016-09-18T12:39:25.179Z,24.78
2016-09-18T12:40:25.213Z,24.92
2016-09-18T12:41:25.074Z,25.23
2016-09-18T12:42:25.157Z,25.12
2016-09-18T12:43:25.302Z,25.15
2016-09-18T12:44:25.118Z,25.37
2016-09-18T12:45:25.115Z,25.47
2016-09-18T12:46:25.153Z,25.23
2016-09-18T12:47:25.180Z,25.11
2016-09-18T12:48:25.178Z,24.69
2016-09-18T12:49:25.170Z,24.29
2016-09-18T12:50:25.205Z,24.29
2016-09-18T12:51:25.135Z,24.04
2016-09-18T12:52:25.125Z,23.89
2016-09-18T12:53:25.230Z,23.81
2016-09-18T12:54:25.178Z,24.15
2016-09-18T12:55:25.195Z,24.48